Latest Coastal Weather Observations for Frederick Reef

IDQ60701

Issued at 7:42 pm EST Tuesday 4 August 2015 (issued every 10 minutes, with the page automatically refreshed every 10 minutes)

About coastal observations | Map of coastal stations | Coastal observations for QLD | Marine services | Other Formats
Station Details ID: 200701 Name: FREDERICK REEF Lat: -20.94 Lon: 154.40 Height: 4.9 m
Data from the previous 72 hours. | See also: Recent months for locations in Queensland
Date/Time
EST
Temp

°C
Wind Pressure Rain
since 9am
mm
Weather Cloud Vis
km
Sea
Height
m
Swell
Dir
 
Speed
knots
Gust
knots
hPa Trend Height
m
Period
s
Dir
04/07:30pm 21.7 S 14 16 1015.4 - - - - - - - - -
04/07:00pm 21.9 S 13 15 1015.2 - - - - - - - - -
04/06:30pm 21.8 S 14 16 1014.9 - - - - - - - - -
04/06:00pm 21.8 S 12 13 1014.7 - - - - - - - - -
04/05:30pm 22.0 S 11 14 1014.6 - - - - - - - - -
04/05:00pm 21.9 S 11 15 1014.5 - - - - - - - - -
04/04:30pm 22.0 S 12 14 1014.4 - - - - - - - - -
04/04:00pm 21.9 S 11 13 1014.3 - - - - - - - - -
04/03:30pm 21.9 S 10 13 1014.3 - - - - - - - - -
04/03:00pm 22.1 S 11 13 1014.3 - - - - - - - - -
04/02:30pm 22.1 S 10 12 1014.5 - - - - - - - - -
04/02:00pm 22.1 S 9 11 1014.8 - - - - - - - - -
04/01:30pm 22.1 S 7 9 1015.0 - - - - - - - - -
04/01:00pm 22.2 S 7 9 1015.4 - - - - - - - - -
04/12:30pm 22.1 SW 5 7 1015.8 - - - - - - - - -
04/12:00pm 22.1 SSW 6 7 1016.1 - - - - - - - - -
04/11:30am 22.6 SW 4 6 1016.6 - - - - - - - - -
04/11:00am 22.4 SW 4 5 1017.1 - - - - - - - - -
04/10:30am 24.4 CALM 0 0 1017.4 - - - - - - - - -
04/10:00am 24.5 CALM 0 0 1017.4 - - - - - - - - -
04/09:30am 24.9 CALM 0 0 1017.6 - - - - - - - - -
04/09:00am 24.5 CALM 0 0 1017.6 - - - - - - - - -
04/08:30am 23.5 NW 2 5 1017.4 - - - - - - - - -
04/08:00am 22.7 CALM 0 0 1017.2 - - - - - - - - -
04/07:30am 22.3 WNW 1 3 1017.0 - - - - - - - - -
04/07:00am 22.2 WNW 3 4 1016.9 - - - - - - - - -
04/06:30am 21.8 NW 5 6 1016.4 - - - - - - - - -
04/06:00am 21.1 NW 1 3 1016.2 - - - - - - - - -
04/05:30am 21.6 NNE 5 7 1015.9 - - - - - - - - -
04/05:00am 21.8 NE 6 7 1015.9 - - - - - - - - -
04/04:30am 21.6 ENE 6 8 1015.8 - - - - - - - - -
04/04:00am 21.8 ENE 7 8 1015.9 - - - - - - - - -
04/03:30am 21.8 ENE 7 8 1016.1 - - - - - - - - -
04/03:00am 21.7 E 7 9 1016.2 - - - - - - - - -
04/02:30am 21.9 E 6 7 1016.5 - - - - - - - - -
04/02:00am 21.8 E 6 7 1016.7 - - - - - - - - -
04/01:30am 21.7 E 6 8 1016.8 - - - - - - - - -
04/01:00am 21.7 E 7 8 1017.0 - - - - - - - - -
04/12:30am 21.9 E 6 7 1017.4 - - - - - - - - -
04/12:00am 21.9 E 6 8 1017.6 - - - - - - - - -
 
Date/Time
EST
Temp

°C
Wind Pressure Rain
since 9am
mm
Weather Cloud Vis
km
Sea
Height
m
Swell
Dir
 
Speed
knots
Gust
knots
hPa Trend Height
m
Period
s
Dir
03/11:30pm 21.8 ESE 5 7 1017.7 - - - - - - - - -
03/11:00pm 22.0 E 6 8 1017.8 - - - - - - - - -
03/10:30pm 21.9 E 5 6 1017.9 - - - - - - - - -
03/10:00pm 22.1 E 5 6 1018.0 - - - - - - - - -
03/09:30pm 22.1 ESE 7 8 1017.9 - - - - - - - - -
03/09:00pm 22.1 ESE 7 9 1017.8 - - - - - - - - -
03/08:30pm 22.2 ESE 7 9 1017.8 - - - - - - - - -
03/08:00pm 22.0 ESE 7 9 1017.8 - - - - - - - - -
03/07:30pm 22.2 SE 6 7 1017.8 - - - - - - - - -
03/07:00pm 22.1 ESE 6 9 1017.7 - - - - - - - - -
03/06:30pm 22.2 ESE 7 8 1017.4 - - - - - - - - -
03/06:00pm 22.1 ESE 6 9 1017.3 - - - - - - - - -
03/05:30pm 22.0 ESE 7 8 1017.1 - - - - - - - - -
03/05:00pm 22.3 SE 7 9 1017.1 - - - - - - - - -
03/04:30pm 22.4 E 7 8 1016.7 - - - - - - - - -
03/04:00pm 22.6 E 6 7 1016.7 - - - - - - - - -
03/03:30pm 22.4 E 8 9 1016.6 - - - - - - - - -
03/03:00pm 22.5 E 9 11 1016.5 - - - - - - - - -
03/02:30pm 22.3 ESE 7 8 1016.9 - - - - - - - - -
03/02:00pm 22.3 ESE 7 9 1017.1 - - - - - - - - -
03/01:30pm 22.3 ESE 7 9 1017.3 - - - - - - - - -
03/01:00pm 22.3 E 8 9 1017.6 - - - - - - - - -
03/12:30pm 22.4 E 8 9 1017.9 - - - - - - - - -
03/12:00pm 22.2 ESE 8 9 1018.3 - - - - - - - - -
03/11:30am 22.2 SE 9 10 1018.8 - - - - - - - - -
03/11:00am 22.3 E 8 10 1019.0 - - - - - - - - -
03/10:30am 22.4 ESE 8 10 1019.4 - - - - - - - - -
03/10:00am 22.4 E 8 10 1019.7 - - - - - - - - -
03/09:30am 22.5 ESE 7 9 1020.1 - - - - - - - - -
03/09:00am 22.5 ESE 8 10 1020.1 - - - - - - - - -
03/08:30am 22.1 ESE 10 12 1019.7 - - - - - - - - -
03/08:00am 22.2 E 11 13 1019.4 - - - - - - - - -
03/07:30am 22.2 E 11 12 1019.4 - - - - - - - - -
03/07:00am 22.2 E 10 13 1019.2 - - - - - - - - -
03/06:30am 21.8 E 11 12 1019.0 - - - - - - - - -
03/06:00am 21.9 E 11 12 1018.9 - - - - - - - - -
03/05:30am 21.8 E 12 14 1018.7 - - - - - - - - -
03/05:00am 21.8 ENE 12 13 1018.6 - - - - - - - - -
03/04:30am 21.6 E 11 13 1018.7 - - - - - - - - -
03/04:00am 21.8 E 10 13 1018.6 - - - - - - - - -
03/03:30am 21.9 E 10 11 1018.6 - - - - - - - - -
03/03:00am 21.8 ESE 12 14 1018.7 - - - - - - - - -
03/02:30am 22.0 ESE 12 15 1018.9 - - - - - - - - -
03/02:00am 22.0 ESE 12 13 1019.2 - - - - - - - - -
03/01:30am 22.2 E 13 18 1019.4 - - - - - - - - -
03/01:00am 22.0 E 15 17 1019.7 - - - - - - - - -
03/12:30am 22.0 E 15 17 1019.9 - - - - - - - - -
03/12:00am 21.9 ESE 16 18 1020.1 - - - - - - - - -
 
Date/Time
EST
Temp

°C
Wind Pressure Rain
since 9am
mm
Weather Cloud Vis
km
Sea
Height
m
Swell
Dir
 
Speed
knots
Gust
knots
hPa Trend Height
m
Period
s
Dir
02/11:30pm 22.1 E 16 20 1020.2 - - - - - - - - -
02/11:00pm 22.0 E 15 17 1020.2 - - - - - - - - -
02/10:30pm 22.3 ESE 14 17 1020.5 - - - - - - - - -
02/10:00pm 22.2 E 16 18 1020.5 - - - - - - - - -
02/09:30pm 22.2 E 16 18 1020.6 - - - - - - - - -
02/09:00pm 22.1 ESE 16 19 1020.4 - - - - - - - - -
02/08:30pm 22.3 E 17 19 1020.4 - - - - - - - - -
02/08:00pm 22.3 ESE 15 18 1020.2 - - - - - - - - -
02/07:30pm 22.4 ESE 16 18 1020.0 - - - - - - - - -
02/07:00pm 22.6 ESE 16 19 1019.8 - - - - - - - - -
02/06:30pm 22.4 ESE 16 18 1019.6 - - - - - - - - -
02/06:00pm 22.4 ESE 15 18 1019.5 - - - - - - - - -
02/05:30pm 22.5 E 16 18 1019.2 - - - - - - - - -
02/05:00pm 22.7 ESE 15 17 1019.1 - - - - - - - - -
02/04:30pm 22.7 E 15 18 1018.9 - - - - - - - - -
02/04:00pm 22.8 E 17 19 1018.7 - - - - - - - - -
02/03:30pm 22.6 E 17 19 1018.5 - - - - - - - - -
02/03:00pm 22.5 E 18 19 1018.5 - - - - - - - - -
02/02:30pm 22.5 E 18 20 1018.4 - - - - - - - - -
02/02:00pm 22.3 E 19 21 1018.5 - - - - - - - - -
02/01:30pm 22.6 E 19 21 1018.7 - - - - - - - - -
02/01:00pm 22.2 E 21 23 1018.9 - - - - - - - - -
02/12:54pm 22.3 E 20 22 1019.2 - - - - - - - - -
02/12:30pm 21.5 E 9 11 1019.7 - - - - - - - - -
02/12:00pm 21.3 ENE 11 17 1020.0 - - - - - - - - -
02/11:30am 21.8 ENE 20 23 1020.2 - - - - - - - - -
02/11:28am 21.6 ENE 20 23 1020.2 - - - - - - - - -
02/11:00am 20.6 E 22 26 1020.6 - - - - - - - - -
02/10:49am 21.2 E 20 25 1020.7 - - - - - - - - -
02/10:30am 20.7 ESE 19 22 1021.1 - - - - - - - - -
02/10:12am 21.8 ESE 17 30 1021.1 - - - - - - - - -
02/10:00am 22.1 ESE 17 19 1021.3 - - - - - - - - -
02/09:30am 22.3 E 20 22 1021.1 - - - - - - - - -
02/09:00am 22.6 ESE 18 20 1021.2 - - - - - - - - -
02/08:30am 22.9 E 20 23 1021.0 - - - - - - - - -
02/08:00am 22.4 E 17 20 1020.9 - - - - - - - - -
02/07:30am 22.5 ESE 20 22 1020.5 - - - - - - - - -
02/07:00am 22.3 E 20 23 1020.4 - - - - - - - - -
02/06:30am 22.2 E 20 23 1020.1 - - - - - - - - -
02/06:00am 22.2 E 20 22 1020.0 - - - - - - - - -
02/05:30am 21.2 E 16 26 1019.9 - - - - - - - - -
02/05:05am 21.7 E 27 30 1019.5 - - - - - - - - -
02/05:00am 21.7 E 27 23 1019.5 - - - - - - - - -
02/04:30am 22.1 ESE 16 19 1019.7 - - - - - - - - -
02/04:00am 22.3 SE 18 21 1019.5 - - - - - - - - -
02/03:42am 22.4 ESE 22 32 1019.7 - - - - - - - - -
02/03:30am 22.4 E 20 25 1019.6 - - - - - - - - -
02/03:00am 22.3 ESE 20 25 1019.7 - - - - - - - - -
02/02:30am 22.2 ESE 20 24 1019.9 - - - - - - - - -
02/02:00am 22.2 ESE 20 25 1019.8 - - - - - - - - -
02/01:30am 22.3 ESE 18 20 1020.0 - - - - - - - - -
02/01:00am 22.3 ESE 20 23 1020.2 - - - - - - - - -
02/12:30am 22.5 E 21 25 1020.4 - - - - - - - - -
02/12:00am 22.4 ESE 22 25 1020.6 - - - - - - - - -
 
Date/Time
EST
Temp

°C
Wind Pressure Rain
since 9am
mm
Weather Cloud Vis
km
Sea
Height
m
Swell
Dir
 
Speed
knots
Gust
knots
hPa Trend Height
m
Period
s
Dir
01/11:30pm 22.5 ESE 21 23 1020.4 - - - - - - - - -
01/11:00pm 22.5 E 23 24 1020.3 - - - - - - - - -
01/10:30pm 22.5 ESE 21 23 1020.4 - - - - - - - - -
01/10:00pm 22.5 ESE 20 24 1020.5 - - - - - - - - -
01/09:30pm 22.4 ESE 21 25 1020.4 - - - - - - - - -
01/09:00pm 22.3 ESE 21 25 1020.4 - - - - - - - - -
01/08:30pm 22.2 ESE 24 27 1020.1 - - - - - - - - -
01/08:00pm 22.4 SE 21 23 1020.2 - - - - - - - - -

Other Formats:

Comma delimited format used in spreadsheet applications
http://www.bom.gov.au/fwo/IDQ60701/IDQ60701.94393.axf

JavaScript Object Notation format (JSON) in row-major order
http://www.bom.gov.au/fwo/IDQ60701/IDQ60701.94393.json